createdAt,value
2023-02-24T00:02:03.012Z,100742.91
2023-02-24T00:04:37.229Z,100738.00
2023-02-24T00:07:08.655Z,100742.44
2023-02-24T00:09:38.083Z,100736.31
2023-02-24T00:12:09.259Z,100724.03
2023-02-24T00:14:39.784Z,100727.13
2023-02-24T00:17:10.271Z,100721.41
2023-02-24T00:19:39.062Z,100712.88
2023-02-24T00:22:09.708Z,100714.50
2023-02-24T00:24:38.473Z,100705.63
2023-02-24T00:27:11.420Z,100710.22
2023-02-24T00:29:40.892Z,100714.47
2023-02-24T00:32:13.446Z,100709.69
2023-02-24T00:34:41.935Z,100705.00
2023-02-24T00:37:11.208Z,100706.09
2023-02-24T00:39:41.885Z,100699.91
2023-02-24T00:42:12.348Z,100699.47
2023-02-24T00:44:42.890Z,100693.78
2023-02-24T00:47:14.131Z,100697.66
2023-02-24T00:49:43.413Z,100696.34
2023-02-24T00:52:13.654Z,100694.59
2023-02-24T00:54:42.278Z,100683.25
2023-02-24T00:57:10.672Z,100685.00
2023-02-24T00:59:39.230Z,100682.28
2023-02-24T01:02:08.029Z,100676.09
2023-02-24T01:04:38.684Z,100674.44
2023-02-24T01:07:11.036Z,100673.59
2023-02-24T01:09:43.935Z,100670.13
2023-02-24T01:12:33.452Z,100669.09
2023-02-24T01:15:05.050Z,100670.19
2023-02-24T01:17:33.422Z,100655.44
2023-02-24T01:20:15.853Z,100666.38
2023-02-24T01:22:45.009Z,100662.72
2023-02-24T01:25:13.491Z,100652.63
2023-02-24T01:27:42.622Z,100651.94
2023-02-24T01:30:15.661Z,100649.13
2023-02-24T01:32:44.734Z,100640.09
2023-02-24T01:35:15.081Z,100643.13
2023-02-24T01:37:45.061Z,100640.19
2023-02-24T01:40:18.917Z,100640.78
2023-02-24T01:42:50.664Z,100626.66
2023-02-24T01:45:23.089Z,100623.78
2023-02-24T01:47:52.716Z,100624.34
2023-02-24T01:50:26.027Z,100626.19
2023-02-24T01:52:58.241Z,100616.19
2023-02-24T01:55:31.961Z,100615.91
2023-02-24T01:58:02.987Z,100613.50
2023-02-24T02:00:38.409Z,100611.97
2023-02-24T02:03:12.552Z,100603.69
2023-02-24T02:05:49.341Z,100604.19
2023-02-24T02:08:19.825Z,100599.44
2023-02-24T02:10:49.420Z,100595.34
2023-02-24T02:13:21.757Z,100596.19
2023-02-24T02:16:01.107Z,100581.94
2023-02-24T02:18:38.676Z,100588.09
2023-02-24T02:21:36.611Z,100585.41
2023-02-24T02:24:19.752Z,100578.06
2023-02-24T02:27:27.765Z,100567.84
2023-02-24T02:30:25.163Z,100563.72
2023-02-24T02:33:27.919Z,100560.50
2023-02-24T02:36:04.336Z,100552.06
2023-02-24T02:38:43.231Z,100552.69
2023-02-24T02:41:20.148Z,100556.06
2023-02-24T02:43:52.761Z,100550.88
2023-02-24T02:46:34.982Z,100549.72
2023-02-24T02:49:17.086Z,100539.09
2023-02-24T02:51:53.414Z,100547.78
2023-02-24T02:54:30.008Z,100534.47
2023-02-24T02:57:03.727Z,100533.44
2023-02-24T02:59:36.535Z,100529.06
2023-02-24T03:02:15.149Z,100529.31
2023-02-24T03:04:51.202Z,100519.91
2023-02-24T03:07:24.483Z,100518.69
2023-02-24T03:09:58.152Z,100520.97
2023-02-24T03:12:30.853Z,100511.19
2023-02-24T03:15:02.145Z,100502.88
2023-02-24T03:17:37.202Z,100502.34
2023-02-24T03:20:15.823Z,100500.06
2023-02-24T03:22:50.353Z,100497.03
2023-02-24T03:25:24.317Z,100490.41
2023-02-24T03:27:57.055Z,100489.16
2023-02-24T03:30:33.281Z,100488.19
2023-02-24T03:33:06.428Z,100479.69
2023-02-24T03:35:40.234Z,100481.78
2023-02-24T03:38:11.285Z,100480.38
2023-02-24T03:40:40.340Z,100481.16
2023-02-24T03:43:17.020Z,100475.69
2023-02-24T03:45:46.719Z,100464.63
2023-02-24T03:48:15.729Z,100461.00
2023-02-24T03:50:46.793Z,100461.09
2023-02-24T03:53:43.047Z,100464.50
2023-02-24T03:56:26.702Z,100458.25
2023-02-24T03:59:12.877Z,100460.06
2023-02-24T04:01:51.908Z,100452.69
2023-02-24T04:04:31.755Z,100447.59
2023-02-24T04:07:15.312Z,100450.28
2023-02-24T04:09:50.371Z,100461.59
2023-02-24T04:12:22.960Z,100454.00
2023-02-24T04:14:59.474Z,100451.63
2023-02-24T04:17:32.245Z,100457.34
2023-02-24T04:20:09.201Z,100451.06
2023-02-24T04:22:41.248Z,100455.03
2023-02-24T04:25:13.941Z,100448.16
2023-02-24T04:27:45.249Z,100441.91
2023-02-24T04:30:18.234Z,100438.53
2023-02-24T04:32:46.675Z,100441.94
2023-02-24T04:35:17.977Z,100430.84
2023-02-24T04:37:51.008Z,100435.16
2023-02-24T04:40:23.204Z,100437.44
2023-02-24T04:42:53.192Z,100429.75
2023-02-24T04:45:22.772Z,100429.94
2023-02-24T04:47:56.358Z,100420.59
2023-02-24T04:50:26.722Z,100425.66
2023-02-24T04:52:56.631Z,100420.44
2023-02-24T04:55:29.458Z,100416.94
2023-02-24T04:57:59.158Z,100401.25
2023-02-24T05:00:35.278Z,100405.69
2023-02-24T05:03:06.132Z,100401.97
2023-02-24T05:05:36.764Z,100382.06
2023-02-24T05:08:07.465Z,100374.34
2023-02-24T05:10:40.301Z,100372.47
2023-02-24T05:13:12.488Z,100375.94
2023-02-24T05:15:42.648Z,100354.91
2023-02-24T05:18:14.934Z,100363.94
2023-02-24T05:21:02.229Z,100353.38
2023-02-24T05:23:33.353Z,100348.19
2023-02-24T05:26:08.555Z,100343.63
2023-02-24T05:28:38.161Z,100341.22
2023-02-24T05:31:08.576Z,100337.84
2023-02-24T05:33:38.262Z,100327.13
2023-02-24T05:36:08.786Z,100326.03
2023-02-24T05:38:38.326Z,100327.44
2023-02-24T05:41:14.992Z,100319.22
2023-02-24T05:43:44.705Z,100319.00
2023-02-24T05:46:13.517Z,100309.75
2023-02-24T05:48:41.874Z,100301.91
2023-02-24T05:51:12.097Z,100298.44
2023-02-24T05:53:42.513Z,100298.59
2023-02-24T05:56:12.618Z,100291.84
2023-02-24T05:58:40.757Z,100287.84
2023-02-24T06:01:16.357Z,100279.16
2023-02-24T06:03:47.944Z,100278.41
2023-02-24T06:06:16.434Z,100272.31
2023-02-24T06:08:49.935Z,100271.25
2023-02-24T06:11:21.422Z,100260.75
2023-02-24T06:13:49.813Z,100261.38
2023-02-24T06:16:18.965Z,100258.44
2023-02-24T06:18:50.951Z,100247.06
2023-02-24T06:21:19.477Z,100241.09
2023-02-24T06:23:51.026Z,100239.03
2023-02-24T06:26:21.578Z,100238.06
2023-02-24T06:28:54.068Z,100221.13
2023-02-24T06:31:22.571Z,100225.97
2023-02-24T06:33:53.389Z,100223.97
2023-02-24T06:36:22.086Z,100222.47
2023-02-24T06:38:52.507Z,100222.88
2023-02-24T06:41:21.884Z,100216.00
2023-02-24T06:43:50.458Z,100211.75
2023-02-24T06:46:18.320Z,100208.19
2023-02-24T06:48:48.122Z,100201.56
2023-02-24T06:51:17.022Z,100199.88
2023-02-24T06:53:45.476Z,100195.34
2023-02-24T06:56:15.803Z,100199.78
2023-02-24T06:58:46.680Z,100200.81
2023-02-24T07:01:15.888Z,100201.66
2023-02-24T07:04:00.244Z,100190.53
2023-02-24T07:06:29.438Z,100193.28
2023-02-24T07:08:59.359Z,100191.69
2023-02-24T07:11:28.978Z,100180.41
2023-02-24T07:13:59.432Z,100186.16
2023-02-24T07:16:29.251Z,100179.25
2023-02-24T07:18:58.478Z,100175.06
2023-02-24T07:21:30.126Z,100171.09
2023-02-24T07:23:59.428Z,100168.63
2023-02-24T07:26:30.340Z,100170.38
2023-02-24T07:28:59.865Z,100160.06
2023-02-24T07:31:27.835Z,100161.16
2023-02-24T07:33:57.559Z,100155.41
2023-02-24T07:36:29.973Z,100144.94
2023-02-24T07:39:01.562Z,100135.34
2023-02-24T07:41:31.299Z,100137.06
2023-02-24T07:44:03.166Z,100137.06
2023-02-24T07:46:32.369Z,100130.16
2023-02-24T07:49:00.206Z,100125.06
2023-02-24T07:51:29.582Z,100129.34
2023-02-24T07:53:59.838Z,100113.09
2023-02-24T07:56:29.271Z,100110.56
2023-02-24T07:59:02.579Z,100104.56
2023-02-24T08:01:38.742Z,100107.69
2023-02-24T08:04:09.045Z,100096.00
2023-02-24T08:06:39.271Z,100098.19
2023-02-24T08:09:17.392Z,100096.84
2023-02-24T08:11:47.079Z,100089.97
2023-02-24T08:14:16.924Z,100084.41
2023-02-24T08:16:46.194Z,100077.16
2023-02-24T08:19:20.154Z,100074.03
2023-02-24T08:21:50.483Z,100078.06
2023-02-24T08:24:20.750Z,100072.56
2023-02-24T08:27:03.952Z,100064.50
2023-02-24T08:29:40.091Z,100063.75
2023-02-24T08:32:09.471Z,100064.69
2023-02-24T08:34:44.291Z,100062.31
2023-02-24T08:37:15.639Z,100058.66
2023-02-24T08:39:44.156Z,100053.63
2023-02-24T08:42:14.444Z,100055.53
2023-02-24T08:44:46.700Z,100049.28
2023-02-24T08:47:21.391Z,100040.19
2023-02-24T08:49:49.789Z,100050.97
2023-02-24T08:52:21.545Z,100047.81
2023-02-24T08:54:50.877Z,100043.38
2023-02-24T08:57:30.792Z,100033.28
2023-02-24T09:00:06.806Z,100035.91
2023-02-24T09:02:41.082Z,100026.25
2023-02-24T09:05:14.357Z,100026.84
2023-02-24T09:07:43.598Z,100017.00
2023-02-24T09:10:21.364Z,100019.81
2023-02-24T09:12:50.236Z,100014.34
2023-02-24T09:15:25.672Z,100009.59
2023-02-24T09:18:07.623Z,100001.63
2023-02-24T09:20:53.515Z,99997.34
2023-02-24T09:23:30.288Z,99996.75
2023-02-24T09:25:58.913Z,99991.47
2023-02-24T09:28:33.000Z,99990.63
2023-02-24T09:31:05.195Z,99980.19
2023-02-24T09:33:39.425Z,99971.28
2023-02-24T09:36:13.198Z,99971.50
2023-02-24T09:39:01.263Z,99967.53
2023-02-24T09:41:34.456Z,99966.91
2023-02-24T09:44:07.712Z,99953.91
2023-02-24T09:46:54.271Z,99951.84
2023-02-24T09:49:39.828Z,99953.41
2023-02-24T09:52:17.341Z,99948.41
2023-02-24T09:55:20.472Z,99954.72
2023-02-24T09:58:08.315Z,99941.44
2023-02-24T10:00:45.447Z,99939.13
2023-02-24T10:03:30.171Z,99935.91
2023-02-24T10:06:12.244Z,99931.84
2023-02-24T10:08:46.584Z,99931.06
2023-02-24T10:11:16.019Z,99924.28
2023-02-24T10:13:53.103Z,99925.25
2023-02-24T10:16:25.324Z,99911.41
2023-02-24T10:19:11.760Z,99919.59
2023-02-24T10:21:49.788Z,99906.63
2023-02-24T10:24:29.332Z,99901.53
2023-02-24T10:27:08.497Z,99896.88
2023-02-24T10:29:55.468Z,99891.28
2023-02-24T10:32:33.892Z,99886.16
2023-02-24T10:35:03.780Z,99877.94
2023-02-24T10:37:31.498Z,99870.41
2023-02-24T10:40:09.393Z,99869.94
2023-02-24T10:42:44.460Z,99864.66
2023-02-24T10:45:19.409Z,99868.34
2023-02-24T10:47:56.652Z,99854.91
2023-02-24T10:50:32.106Z,99853.88
2023-02-24T10:53:34.418Z,99844.06
2023-02-24T10:56:23.760Z,99840.50
2023-02-24T10:59:16.475Z,99835.53
2023-02-24T11:01:55.085Z,99821.47
2023-02-24T11:04:53.948Z,99809.69
2023-02-24T11:07:33.690Z,99802.28
2023-02-24T11:10:12.100Z,99799.38
2023-02-24T11:13:09.370Z,99798.72
2023-02-24T11:16:00.762Z,99777.34
2023-02-24T11:18:30.359Z,99779.00
2023-02-24T11:21:00.985Z,99771.97
2023-02-24T11:23:34.897Z,99763.03
2023-02-24T11:26:05.246Z,99751.66
2023-02-24T11:29:00.643Z,99754.78
2023-02-24T11:31:46.123Z,99739.59
2023-02-24T11:34:24.375Z,99745.81
2023-02-24T11:36:59.144Z,99731.41
2023-02-24T11:39:50.447Z,99721.13
2023-02-24T11:42:27.023Z,99722.28
2023-02-24T11:45:00.371Z,99723.81
2023-02-24T11:47:33.027Z,99716.13
2023-02-24T11:50:24.712Z,99709.13
2023-02-24T11:52:55.954Z,99699.69
2023-02-24T11:55:34.947Z,99691.00
2023-02-24T11:58:06.661Z,99694.91
2023-02-24T12:00:38.316Z,99682.50
2023-02-24T12:03:15.436Z,99676.00
2023-02-24T12:05:49.848Z,99674.06
2023-02-24T12:08:27.074Z,99673.97
2023-02-24T12:11:03.785Z,99669.00
2023-02-24T12:13:42.826Z,99662.84
2023-02-24T12:16:16.849Z,99664.44
2023-02-24T12:18:51.495Z,99652.22
2023-02-24T12:21:25.156Z,99638.56
2023-02-24T12:23:54.652Z,99645.38
2023-02-24T12:26:30.877Z,99650.50
2023-02-24T12:29:21.041Z,99640.53
2023-02-24T12:31:57.402Z,99641.16
2023-02-24T12:34:38.871Z,99651.28
2023-02-24T12:37:32.415Z,99643.47
2023-02-24T12:40:17.270Z,99634.16
2023-02-24T12:42:57.435Z,99627.69
2023-02-24T12:45:39.319Z,99631.69
2023-02-24T12:48:19.107Z,99625.09
2023-02-24T12:50:54.660Z,99627.22
2023-02-24T12:53:24.779Z,99624.25
2023-02-24T12:56:07.797Z,99613.31
2023-02-24T12:58:39.861Z,99612.06
2023-02-24T13:01:17.648Z,99596.88
2023-02-24T13:04:01.101Z,99599.63
2023-02-24T13:06:42.739Z,99595.97
2023-02-24T13:09:22.715Z,99599.34
2023-02-24T13:11:55.791Z,99586.03
2023-02-24T13:14:31.881Z,99581.72
2023-02-24T13:17:20.089Z,99579.41
2023-02-24T13:19:49.403Z,99582.66
2023-02-24T13:22:30.217Z,99573.88
2023-02-24T13:25:02.816Z,99562.34
2023-02-24T13:27:34.859Z,99557.81
2023-02-24T13:30:24.635Z,99556.00
2023-02-24T13:33:02.107Z,99556.44
2023-02-24T13:35:33.847Z,99543.09
2023-02-24T13:38:24.723Z,99545.06
2023-02-24T13:40:53.339Z,99541.56
2023-02-24T13:43:27.962Z,99538.41
2023-02-24T13:46:00.522Z,99533.72
2023-02-24T13:49:01.218Z,99526.41
2023-02-24T13:51:54.149Z,99519.97
2023-02-24T13:54:40.357Z,99518.41
2023-02-24T13:57:38.555Z,99517.50
2023-02-24T14:00:13.038Z,99516.50
2023-02-24T14:02:44.640Z,99511.38
2023-02-24T14:05:20.657Z,99503.63
2023-02-24T14:07:51.402Z,99507.47
2023-02-24T14:10:21.829Z,99498.06
2023-02-24T14:12:51.409Z,99494.94
2023-02-24T14:15:22.240Z,99490.31
2023-02-24T14:17:58.469Z,99487.94
2023-02-24T14:20:28.529Z,99475.50
2023-02-24T14:22:59.064Z,99478.59
2023-02-24T14:25:29.999Z,99463.13
2023-02-24T14:28:01.743Z,99457.22
2023-02-24T14:30:34.042Z,99462.84
2023-02-24T14:33:04.873Z,99467.19
2023-02-24T14:35:35.978Z,99470.09
2023-02-24T14:38:05.045Z,99458.00
2023-02-24T14:40:33.477Z,99460.81
2023-02-24T14:43:03.793Z,99445.16
2023-02-24T14:45:31.766Z,99452.84
2023-02-24T14:47:59.676Z,99451.00
2023-02-24T14:50:34.127Z,99440.78
2023-02-24T14:53:06.600Z,99441.88
2023-02-24T14:55:38.143Z,99431.34
2023-02-24T14:58:14.936Z,99429.47
2023-02-24T15:00:49.466Z,99423.13
2023-02-24T15:03:24.134Z,99412.06
2023-02-24T15:05:56.909Z,99421.59
2023-02-24T15:08:33.344Z,99414.97
2023-02-24T15:11:01.771Z,99410.78
2023-02-24T15:13:37.666Z,99415.97
2023-02-24T15:16:12.557Z,99405.44
2023-02-24T15:18:41.327Z,99403.00
2023-02-24T15:21:22.450Z,99398.34
2023-02-24T15:23:50.763Z,99405.00
2023-02-24T15:26:27.256Z,99401.81
2023-02-24T15:29:00.819Z,99397.94
2023-02-24T15:31:29.890Z,99386.94
2023-02-24T15:34:00.306Z,99378.81
2023-02-24T15:36:33.280Z,99378.06
2023-02-24T15:39:04.515Z,99385.00
2023-02-24T15:41:42.960Z,99374.47
2023-02-24T15:44:25.785Z,99365.91
2023-02-24T15:46:53.703Z,99361.69
2023-02-24T15:49:21.640Z,99362.78
2023-02-24T15:51:53.173Z,99359.00
2023-02-24T15:54:30.849Z,99347.91
2023-02-24T15:57:00.435Z,99354.53
2023-02-24T15:59:31.213Z,99341.81
2023-02-24T16:01:59.295Z,99346.66
2023-02-24T16:04:27.840Z,99342.84
2023-02-24T16:06:58.849Z,99342.66
2023-02-24T16:09:33.524Z,99337.47
2023-02-24T16:12:03.256Z,99332.78
2023-02-24T16:14:31.118Z,99332.94
2023-02-24T16:16:59.965Z,99330.63
2023-02-24T16:19:27.847Z,99330.81
2023-02-24T16:21:57.068Z,99335.00
2023-02-24T16:24:24.852Z,99329.25
2023-02-24T16:26:52.705Z,99327.91
2023-02-24T16:29:20.582Z,99317.66
2023-02-24T16:31:48.615Z,99310.88
2023-02-24T16:34:16.970Z,99315.34
2023-02-24T16:36:45.159Z,99311.63
2023-02-24T16:39:15.067Z,99315.88
2023-02-24T16:41:42.963Z,99308.31
2023-02-24T16:44:11.347Z,99308.72
2023-02-24T16:46:41.379Z,99302.38
2023-02-24T16:49:14.475Z,99296.66
2023-02-24T16:51:42.282Z,99293.25
2023-02-24T16:54:10.491Z,99295.59
2023-02-24T16:56:39.879Z,99291.34
2023-02-24T16:59:07.865Z,99298.44
2023-02-24T17:01:37.386Z,99298.69
2023-02-24T17:04:09.862Z,99302.69
2023-02-24T17:06:37.817Z,99300.19
2023-02-24T17:09:05.812Z,99298.00
2023-02-24T17:11:34.009Z,99300.13
2023-02-24T17:14:03.202Z,99294.91
2023-02-24T17:16:31.436Z,99288.97
2023-02-24T17:18:59.461Z,99287.38
2023-02-24T17:21:27.734Z,99291.69
2023-02-24T17:23:55.591Z,99286.50
2023-02-24T17:26:23.956Z,99285.97
2023-02-24T17:28:51.973Z,99284.53
2023-02-24T17:31:21.365Z,99282.78
2023-02-24T17:33:49.413Z,99283.13
2023-02-24T17:36:17.196Z,99292.75
2023-02-24T17:38:45.042Z,99294.97
2023-02-24T17:41:12.973Z,99293.84
2023-02-24T17:43:40.920Z,99279.97
2023-02-24T17:46:08.777Z,99304.09
2023-02-24T17:48:38.035Z,99302.78
2023-02-24T17:51:06.161Z,99291.19
2023-02-24T17:53:33.974Z,99298.53
2023-02-24T17:56:03.537Z,99302.38
2023-02-24T17:58:31.834Z,99301.56
2023-02-24T18:01:19.293Z,99296.00
2023-02-24T18:03:48.506Z,99298.69
2023-02-24T18:06:16.507Z,99300.19
2023-02-24T18:08:44.357Z,99307.00
2023-02-24T18:11:16.959Z,99315.19
2023-02-24T18:13:45.142Z,99298.13
2023-02-24T18:16:15.253Z,99297.44
2023-02-24T18:18:43.195Z,99306.06
2023-02-24T18:22:12.371Z,99312.28
2023-02-24T18:24:41.595Z,99300.25
2023-02-24T18:27:09.579Z,99303.94
2023-02-24T18:29:37.555Z,99309.00
2023-02-24T18:32:13.094Z,99308.13
2023-02-24T18:34:43.148Z,99311.75
2023-02-24T18:37:10.966Z,99309.28
2023-02-24T18:39:39.332Z,99313.97
2023-02-24T18:42:08.554Z,99319.84
2023-02-24T18:44:36.600Z,99311.47
2023-02-24T18:47:09.263Z,99317.69
2023-02-24T18:49:37.470Z,99329.63
2023-02-24T18:52:07.354Z,99313.22
2023-02-24T18:54:35.601Z,99319.88
2023-02-24T18:57:03.670Z,99324.22
2023-02-24T18:59:33.251Z,99316.91
2023-02-24T19:02:01.315Z,99323.66
2023-02-24T19:04:29.205Z,99325.34
2023-02-24T19:06:57.179Z,99323.31
2023-02-24T19:09:25.255Z,99330.34
2023-02-24T19:11:54.487Z,99322.50
2023-02-24T19:14:23.409Z,99320.63
2023-02-24T19:16:53.781Z,99320.91
2023-02-24T19:19:22.845Z,99323.59
2023-02-24T19:21:52.096Z,99318.63
2023-02-24T19:24:20.133Z,99312.97
2023-02-24T19:26:48.454Z,99319.44
2023-02-24T19:29:17.503Z,99317.88
2023-02-24T19:31:48.335Z,99323.13
2023-02-24T19:34:20.605Z,99312.63
2023-02-24T19:36:48.654Z,99322.34
2023-02-24T19:39:18.418Z,99321.88
2023-02-24T19:41:49.468Z,99318.16
2023-02-24T19:44:17.838Z,99317.19
2023-02-24T19:46:45.841Z,99332.78
2023-02-24T19:49:13.633Z,99328.16
2023-02-24T19:51:43.551Z,99338.03
2023-02-24T19:54:13.735Z,99329.34
2023-02-24T19:56:41.564Z,99328.19
2023-02-24T19:59:09.793Z,99324.25
2023-02-24T20:01:37.728Z,99322.22
2023-02-24T20:04:06.049Z,99331.19
2023-02-24T20:06:36.626Z,99322.56
2023-02-24T20:09:08.386Z,99321.66
2023-02-24T20:11:41.243Z,99327.63
2023-02-24T20:14:12.035Z,99328.50
2023-02-24T20:16:40.954Z,99330.09
2023-02-24T20:19:11.437Z,99336.59
2023-02-24T20:21:40.709Z,99333.47
2023-02-24T20:24:13.694Z,99327.28
2023-02-24T20:27:06.665Z,99341.06
2023-02-24T20:29:41.946Z,99336.34
2023-02-24T20:32:10.373Z,99337.69
2023-02-24T20:34:39.648Z,99338.09
2023-02-24T20:37:08.353Z,99334.00
2023-02-24T20:39:42.728Z,99342.47
2023-02-24T20:42:13.764Z,99346.06
2023-02-24T20:44:43.278Z,99349.63
2023-02-24T20:47:11.860Z,99342.66
2023-02-24T20:49:41.526Z,99341.59
2023-02-24T20:52:10.467Z,99345.06
2023-02-24T20:54:40.691Z,99347.94
2023-02-24T20:57:09.825Z,99351.09
2023-02-24T20:59:41.610Z,99344.84
2023-02-24T21:02:13.431Z,99343.53
2023-02-24T21:04:42.225Z,99337.69
2023-02-24T21:07:11.086Z,99343.78
2023-02-24T21:09:42.296Z,99345.72
2023-02-24T21:12:10.745Z,99341.06
2023-02-24T21:14:39.582Z,99345.78
2023-02-24T21:17:08.386Z,99348.25
2023-02-24T21:19:38.602Z,99342.50
2023-02-24T21:22:07.951Z,99340.53
2023-02-24T21:24:37.113Z,99335.66
2023-02-24T21:27:08.343Z,99343.16
2023-02-24T21:29:39.746Z,99332.94
2023-02-24T21:32:08.485Z,99336.28
2023-02-24T21:34:38.198Z,99329.03
2023-02-24T21:37:07.598Z,99327.16
2023-02-24T21:39:36.130Z,99324.66
2023-02-24T21:42:05.023Z,99329.44
2023-02-24T21:44:36.109Z,99333.28
2023-02-24T21:47:05.000Z,99341.19
2023-02-24T21:49:33.526Z,99338.00
2023-02-24T21:52:02.646Z,99338.41
2023-02-24T21:54:36.508Z,99348.19
2023-02-24T21:57:06.550Z,99353.56
2023-02-24T21:59:37.394Z,99357.75
2023-02-24T22:02:07.080Z,99358.63
2023-02-24T22:04:36.552Z,99355.94
2023-02-24T22:07:05.278Z,99349.84
2023-02-24T22:09:34.172Z,99348.03
2023-02-24T22:12:02.982Z,99344.22
2023-02-24T22:14:33.590Z,99337.88
2023-02-24T22:17:04.228Z,99340.81
2023-02-24T22:19:36.114Z,99341.66
2023-02-24T22:22:05.316Z,99355.22
2023-02-24T22:24:34.159Z,99359.38
2023-02-24T22:27:03.054Z,99350.63
2023-02-24T22:29:31.983Z,99348.59
2023-02-24T22:32:00.662Z,99366.00
2023-02-24T22:34:30.980Z,99365.41
2023-02-24T22:36:59.654Z,99354.69
2023-02-24T22:39:29.066Z,99352.16
2023-02-24T22:41:59.025Z,99363.19
2023-02-24T22:44:35.155Z,99365.03
2023-02-24T22:47:11.344Z,99362.63
2023-02-24T22:49:41.837Z,99365.91
2023-02-24T22:52:11.850Z,99365.66
2023-02-24T22:54:44.041Z,99360.16
2023-02-24T22:57:18.157Z,99367.75
2023-02-24T22:59:53.015Z,99342.81
2023-02-24T23:02:21.126Z,99351.75
2023-02-24T23:04:53.807Z,99358.22
2023-02-24T23:07:22.487Z,99354.09
2023-02-24T23:09:53.088Z,99371.56
2023-02-24T23:12:22.407Z,99351.25
2023-02-24T23:14:50.670Z,99352.72
2023-02-24T23:17:18.591Z,99349.84
2023-02-24T23:19:46.408Z,99348.94
2023-02-24T23:22:16.233Z,99359.75
2023-02-24T23:24:44.648Z,99361.72
2023-02-24T23:27:12.487Z,99359.19
2023-02-24T23:29:40.935Z,99365.50
2023-02-24T23:32:08.924Z,99371.72
2023-02-24T23:34:36.907Z,99361.09
2023-02-24T23:37:07.369Z,99357.47
2023-02-24T23:39:36.614Z,99362.25
2023-02-24T23:42:04.831Z,99369.78
2023-02-24T23:44:32.702Z,99370.69
2023-02-24T23:47:01.197Z,99364.72
2023-02-24T23:49:42.407Z,99370.88
2023-02-24T23:52:14.107Z,99368.78
2023-02-24T23:54:43.504Z,99378.59
2023-02-24T23:57:11.487Z,99379.59
2023-02-24T23:59:39.567Z,99376.13
